Hg 306 Tobis — OUPS — position and weather

sailwx.info

Track history (hours):
 
Tides and Currents Weather Stations Pressure Air Temp Water Temp Dewpoint Dewpoint Depression Visibility Wind Speed Wind Dir Waves Ship Positions

Hg 306 Tobis

Last reported at 2017-Aug-16 23:05 UTC. Time now 2017-Aug-18 04:43 UTC.
Position N 57°57' E 006°06'.

Length 40 m; draft 6.4 m.

Type: Fishing. MMSI: 219013001.

Date/timePositionNaut miles runAvg speedWind from/ knotsBaromVisibWave heightAir tempDewpointWater temp
2017-Aug-16 23:05N 57°57' E 006°06'111.3
2017-Aug-16 22:58N 57°57' E 006°08'511.2
2017-Aug-16 22:30N 57°54' E 006°16'611.0
2017-Aug-16 22:00N 57°51' E 006°25'7810.5
2017-Aug-16 14:30N 57°10' E 008°29'4 8.7
2017-Aug-16 14:00N 57°07' E 008°36'0 0.2
2017-Aug-16 13:30N 57°07' E 008°36'0 0.0
2017-Aug-16 13:00N 57°07' E 008°36'0 0.0
2017-Aug-16 12:29N 57°07' E 008°36'0 0.0
2017-Aug-16 11:59N 57°07' E 008°36'  
2017-Aug-09 11:13N 58°55' E 004°30'210.2
2017-Aug-09 11:00N 58°54' E 004°34'510.4
2017-Aug-09 10:29N 58°50' E 004°42'510.1
2017-Aug-09 10:00N 58°47' E 004°49'510.7
2017-Aug-09 09:30N 58°43' E 004°56'510.5
2017-Aug-09 09:00N 58°39' E 005°03'510.4
2017-Aug-09 08:30N 58°36' E 005°10'510.7
2017-Aug-09 08:00N 58°32' E 005°18'611.3
2017-Aug-09 07:30N 58°29' E 005°26'611.0
2017-Aug-09 07:00N 58°25' E 005°34'611.3
2017-Aug-09 06:30N 58°21' E 005°42'611.0
2017-Aug-09 06:00N 58°17' E 005°50'611.6
2017-Aug-09 05:29N 58°14' E 005°59'611.1
2017-Aug-09 04:59N 58°10' E 006°07'611.7
2017-Aug-09 04:30N 58°07' E 006°16'611.5
2017-Aug-09 04:00N 58°03' E 006°24'611.5
2017-Aug-09 03:30N 57°60' E 006°33'611.3
2017-Aug-09 03:00N 57°56' E 006°41'611.2
2017-Aug-09 02:29N 57°52' E 006°49'511.2
2017-Aug-09 02:00N 57°49' E 006°57'510.7
2017-Aug-09 01:30N 57°46' E 007°05'510.5
2017-Aug-09 01:00N 57°42' E 007°13'  
Track history (hours):
 
Tides and Currents Weather Stations Pressure Air Temp Water Temp Dewpoint Dewpoint Depression Visibility Wind Speed Wind Dir Waves Ship Positions

Hg 306 Tobis

Last reported at 2017-Aug-16 23:05 UTC. Time now 2017-Aug-18 04:43 UTC.
Position N 57°57' E 006°06'.

Length 40 m; draft 6.4 m.

Type: Fishing. MMSI: 219013001.

Date/timePositionNaut miles runAvg speedWind from/ knotsBaromVisibWave heightAir tempDewpointWater temp
2017-Aug-16 23:05N 57°57' E 006°06'111.3
2017-Aug-16 22:58N 57°57' E 006°08'511.2
2017-Aug-16 22:30N 57°54' E 006°16'611.0
2017-Aug-16 22:00N 57°51' E 006°25'7810.5
2017-Aug-16 14:30N 57°10' E 008°29'4 8.7
2017-Aug-16 14:00N 57°07' E 008°36'0 0.2
2017-Aug-16 13:30N 57°07' E 008°36'0 0.0
2017-Aug-16 13:00N 57°07' E 008°36'0 0.0
2017-Aug-16 12:29N 57°07' E 008°36'0 0.0
2017-Aug-16 11:59N 57°07' E 008°36'  
2017-Aug-09 11:13N 58°55' E 004°30'210.2
2017-Aug-09 11:00N 58°54' E 004°34'510.4
2017-Aug-09 10:29N 58°50' E 004°42'510.1
2017-Aug-09 10:00N 58°47' E 004°49'510.7
2017-Aug-09 09:30N 58°43' E 004°56'510.5
2017-Aug-09 09:00N 58°39' E 005°03'510.4
2017-Aug-09 08:30N 58°36' E 005°10'510.7
2017-Aug-09 08:00N 58°32' E 005°18'611.3
2017-Aug-09 07:30N 58°29' E 005°26'611.0
2017-Aug-09 07:00N 58°25' E 005°34'611.3
2017-Aug-09 06:30N 58°21' E 005°42'611.0
2017-Aug-09 06:00N 58°17' E 005°50'611.6
2017-Aug-09 05:29N 58°14' E 005°59'611.1
2017-Aug-09 04:59N 58°10' E 006°07'611.7
2017-Aug-09 04:30N 58°07' E 006°16'611.5
2017-Aug-09 04:00N 58°03' E 006°24'611.5
2017-Aug-09 03:30N 57°60' E 006°33'611.3
2017-Aug-09 03:00N 57°56' E 006°41'611.2
2017-Aug-09 02:29N 57°52' E 006°49'511.2
2017-Aug-09 02:00N 57°49' E 006°57'510.7
2017-Aug-09 01:30N 57°46' E 007°05'510.5
2017-Aug-09 01:00N 57°42' E 007°13'  

Dump ship's entire track history